Villa Victoria, Puerto Rico
Current Conditions -  °F | °C
As of 12:56 AM on Tuesday 23 Dec 2014 (Local Time) from TJSJ Reporting Station
Scattered Clouds Scattered Clouds  
Wind Chill: 77°   Ceiling: Unl
Heat Index: 78°   Visibility: 10mi
Dew Point: 73°   Wind: 0mph
Humidity: 88%   Direction: NA
Pressure: 30.02"   Gusts: NA
Location:  18.2361°N, 66.0369°W
Report Text: TJSJ 230456Z 00000KT 10SM FEW022 SCT035 25/23 A3002 RMK AO2 SLP165 T02500228
Loading
Personal Weather Stations






























Interactive Weather Map New forecast layout! Learn more

10-Day Weather Forecast

Advertisements
Track Severe Weather on mobile